sensor_id;sensor_type;location;lat;lon;timestamp;temperature;humidity
76384;SHT30;65204;48.606;7.598;2023-11-22T00:00:10;13.38;67.66
76384;SHT30;65204;48.606;7.598;2023-11-22T00:00:40;13.38;67.69
76384;SHT30;65204;48.606;7.598;2023-11-22T00:01:11;13.41;67.70
76384;SHT30;65204;48.606;7.598;2023-11-22T00:01:41;13.41;67.68
76384;SHT30;65204;48.606;7.598;2023-11-22T00:02:12;13.44;67.68
76384;SHT30;65204;48.606;7.598;2023-11-22T00:02:42;13.45;67.65
76384;SHT30;65204;48.606;7.598;2023-11-22T00:03:12;13.43;67.63
76384;SHT30;65204;48.606;7.598;2023-11-22T00:03:43;13.43;67.64
76384;SHT30;65204;48.606;7.598;2023-11-22T00:04:13;13.41;67.74
76384;SHT30;65204;48.606;7.598;2023-11-22T00:04:44;13.43;67.66
76384;SHT30;65204;48.606;7.598;2023-11-22T00:05:14;13.43;67.66
76384;SHT30;65204;48.606;7.598;2023-11-22T00:05:44;13.41;67.80
76384;SHT30;65204;48.606;7.598;2023-11-22T00:06:15;13.38;67.72
76384;SHT30;65204;48.606;7.598;2023-11-22T00:06:46;13.41;67.74
76384;SHT30;65204;48.606;7.598;2023-11-22T00:07:17;13.38;67.75
76384;SHT30;65204;48.606;7.598;2023-11-22T00:07:47;13.38;67.73
76384;SHT30;65204;48.606;7.598;2023-11-22T00:08:18;13.38;67.75
76384;SHT30;65204;48.606;7.598;2023-11-22T00:08:48;13.38;67.64
76384;SHT30;65204;48.606;7.598;2023-11-22T00:09:18;13.43;67.69
76384;SHT30;65204;48.606;7.598;2023-11-22T00:09:52;13.44;67.69
76384;SHT30;65204;48.606;7.598;2023-11-22T00:10:22;13.41;67.57
76384;SHT30;65204;48.606;7.598;2023-11-22T00:10:53;13.45;67.52
76384;SHT30;65204;48.606;7.598;2023-11-22T00:11:23;13.45;67.46
76384;SHT30;65204;48.606;7.598;2023-11-22T00:11:54;13.47;67.44
76384;SHT30;65204;48.606;7.598;2023-11-22T00:12:24;13.44;67.49
76384;SHT30;65204;48.606;7.598;2023-11-22T00:12:55;13.48;67.48
76384;SHT30;65204;48.606;7.598;2023-11-22T00:13:25;13.48;67.48
76384;SHT30;65204;48.606;7.598;2023-11-22T00:13:56;13.48;67.50
76384;SHT30;65204;48.606;7.598;2023-11-22T00:14:26;13.50;67.47
76384;SHT30;65204;48.606;7.598;2023-11-22T00:14:57;13.51;67.43
76384;SHT30;65204;48.606;7.598;2023-11-22T00:15:27;13.53;67.42
76384;SHT30;65204;48.606;7.598;2023-11-22T00:15:57;13.53;67.35
76384;SHT30;65204;48.606;7.598;2023-11-22T00:16:28;13.54;67.24
76384;SHT30;65204;48.606;7.598;2023-11-22T00:16:58;13.54;67.24
76384;SHT30;65204;48.606;7.598;2023-11-22T00:17:32;13.50;67.31
76384;SHT30;65204;48.606;7.598;2023-11-22T00:18:02;13.47;67.39
76384;SHT30;65204;48.606;7.598;2023-11-22T00:18:33;13.48;67.39
76384;SHT30;65204;48.606;7.598;2023-11-22T00:19:04;13.47;67.41
76384;SHT30;65204;48.606;7.598;2023-11-22T00:19:35;13.48;67.52
76384;SHT30;65204;48.606;7.598;2023-11-22T00:20:06;13.47;67.54
76384;SHT30;65204;48.606;7.598;2023-11-22T00:20:38;13.50;67.56
76384;SHT30;65204;48.606;7.598;2023-11-22T00:21:08;13.48;67.69
76384;SHT30;65204;48.606;7.598;2023-11-22T00:21:40;13.48;67.76
76384;SHT30;65204;48.606;7.598;2023-11-22T00:22:11;13.51;67.84
76384;SHT30;65204;48.606;7.598;2023-11-22T00:22:44;13.51;67.84
76384;SHT30;65204;48.606;7.598;2023-11-22T00:23:17;13.50;67.78
76384;SHT30;65204;48.606;7.598;2023-11-22T00:23:48;13.48;67.93
76384;SHT30;65204;48.606;7.598;2023-11-22T00:24:18;13.44;68.20
76384;SHT30;65204;48.606;7.598;2023-11-22T00:24:49;13.45;67.97
76384;SHT30;65204;48.606;7.598;2023-11-22T00:25:20;13.31;68.00
76384;SHT30;65204;48.606;7.598;2023-11-22T00:25:50;13.14;68.65
76384;SHT30;65204;48.606;7.598;2023-11-22T00:26:22;13.06;69.31
76384;SHT30;65204;48.606;7.598;2023-11-22T00:26:53;12.89;69.64
76384;SHT30;65204;48.606;7.598;2023-11-22T00:27:23;12.97;69.75
76384;SHT30;65204;48.606;7.598;2023-11-22T00:27:53;12.92;70.51
76384;SHT30;65204;48.606;7.598;2023-11-22T00:28:25;12.93;70.32
76384;SHT30;65204;48.606;7.598;2023-11-22T00:28:55;12.87;70.52
76384;SHT30;65204;48.606;7.598;2023-11-22T00:29:26;12.87;70.78
76384;SHT30;65204;48.606;7.598;2023-11-22T00:29:57;12.73;71.42
76384;SHT30;65204;48.606;7.598;2023-11-22T00:30:27;12.76;71.06
76384;SHT30;65204;48.606;7.598;2023-11-22T00:30:58;12.76;71.03
76384;SHT30;65204;48.606;7.598;2023-11-22T00:31:28;12.75;71.09
76384;SHT30;65204;48.606;7.598;2023-11-22T00:31:58;12.75;71.13
76384;SHT30;65204;48.606;7.598;2023-11-22T00:32:29;12.76;71.00
76384;SHT30;65204;48.606;7.598;2023-11-22T00:32:59;12.73;71.27
76384;SHT30;65204;48.606;7.598;2023-11-22T00:33:29;12.77;70.86
76384;SHT30;65204;48.606;7.598;2023-11-22T00:34:01;12.83;70.81
76384;SHT30;65204;48.606;7.598;2023-11-22T00:34:32;12.84;70.51
76384;SHT30;65204;48.606;7.598;2023-11-22T00:35:02;12.80;70.85
76384;SHT30;65204;48.606;7.598;2023-11-22T00:35:32;12.79;70.97
76384;SHT30;65204;48.606;7.598;2023-11-22T00:36:03;12.73;71.27
76384;SHT30;65204;48.606;7.598;2023-11-22T00:36:34;12.77;71.09
76384;SHT30;65204;48.606;7.598;2023-11-22T00:37:05;12.77;71.20
76384;SHT30;65204;48.606;7.598;2023-11-22T00:37:35;12.69;71.35
76384;SHT30;65204;48.606;7.598;2023-11-22T00:38:06;12.64;71.71
76384;SHT30;65204;48.606;7.598;2023-11-22T00:38:36;12.57;71.75
76384;SHT30;65204;48.606;7.598;2023-11-22T00:39:07;12.57;72.57
76384;SHT30;65204;48.606;7.598;2023-11-22T00:39:39;12.43;72.88
76384;SHT30;65204;48.606;7.598;2023-11-22T00:40:10;12.45;72.72
76384;SHT30;65204;48.606;7.598;2023-11-22T00:40:40;12.35;72.63
76384;SHT30;65204;48.606;7.598;2023-11-22T00:41:11;12.29;72.97
76384;SHT30;65204;48.606;7.598;2023-11-22T00:41:41;12.24;73.00
76384;SHT30;65204;48.606;7.598;2023-11-22T00:42:11;12.21;73.33
76384;SHT30;65204;48.606;7.598;2023-11-22T00:42:42;12.18;73.26
76384;SHT30;65204;48.606;7.598;2023-11-22T00:43:13;12.15;72.97
76384;SHT30;65204;48.606;7.598;2023-11-22T00:43:43;12.18;73.02
76384;SHT30;65204;48.606;7.598;2023-11-22T00:44:14;12.10;72.88
76384;SHT30;65204;48.606;7.598;2023-11-22T00:44:44;11.99;72.71
76384;SHT30;65204;48.606;7.598;2023-11-22T00:45:15;11.94;73.11
76384;SHT30;65204;48.606;7.598;2023-11-22T00:45:45;11.90;73.11
76384;SHT30;65204;48.606;7.598;2023-11-22T00:46:15;11.82;73.69
76384;SHT30;65204;48.606;7.598;2023-11-22T00:46:46;11.87;73.32
76384;SHT30;65204;48.606;7.598;2023-11-22T00:47:16;11.92;73.25
76384;SHT30;65204;48.606;7.598;2023-11-22T00:47:46;11.92;73.16
76384;SHT30;65204;48.606;7.598;2023-11-22T00:48:17;11.92;73.28
76384;SHT30;65204;48.606;7.598;2023-11-22T00:48:47;11.92;73.01
76384;SHT30;65204;48.606;7.598;2023-11-22T00:49:18;11.88;72.74
76384;SHT30;65204;48.606;7.598;2023-11-22T00:49:48;11.82;73.24
76384;SHT30;65204;48.606;7.598;2023-11-22T00:50:18;11.67;73.84
76384;SHT30;65204;48.606;7.598;2023-11-22T00:50:50;11.61;74.53
76384;SHT30;65204;48.606;7.598;2023-11-22T00:51:21;11.60;74.55
76384;SHT30;65204;48.606;7.598;2023-11-22T00:51:51;11.61;74.50
76384;SHT30;65204;48.606;7.598;2023-11-22T00:52:22;11.63;74.23
76384;SHT30;65204;48.606;7.598;2023-11-22T00:52:53;11.53;73.82
76384;SHT30;65204;48.606;7.598;2023-11-22T00:53:24;11.50;73.86
76384;SHT30;65204;48.606;7.598;2023-11-22T00:53:54;11.50;74.05
76384;SHT30;65204;48.606;7.598;2023-11-22T00:54:25;11.51;74.31
76384;SHT30;65204;48.606;7.598;2023-11-22T00:54:56;11.53;73.97
76384;SHT30;65204;48.606;7.598;2023-11-22T00:55:27;11.57;73.71
76384;SHT30;65204;48.606;7.598;2023-11-22T00:55:57;11.60;73.39
76384;SHT30;65204;48.606;7.598;2023-11-22T00:56:27;11.57;73.46
76384;SHT30;65204;48.606;7.598;2023-11-22T00:56:58;11.59;73.46
76384;SHT30;65204;48.606;7.598;2023-11-22T00:57:28;11.57;73.33
76384;SHT30;65204;48.606;7.598;2023-11-22T00:58:00;11.54;73.43
76384;SHT30;65204;48.606;7.598;2023-11-22T00:58:34;11.56;73.31
76384;SHT30;65204;48.606;7.598;2023-11-22T00:59:04;11.60;73.20
76384;SHT30;65204;48.606;7.598;2023-11-22T00:59:35;11.60;73.12
76384;SHT30;65204;48.606;7.598;2023-11-22T01:00:06;11.60;72.90
76384;SHT30;65204;48.606;7.598;2023-11-22T01:00:41;11.61;72.98
76384;SHT30;65204;48.606;7.598;2023-11-22T01:01:11;11.60;73.07
76384;SHT30;65204;48.606;7.598;2023-11-22T01:01:41;11.60;73.08
76384;SHT30;65204;48.606;7.598;2023-11-22T01:02:12;11.56;72.08
76384;SHT30;65204;48.606;7.598;2023-11-22T01:02:42;11.54;72.26
76384;SHT30;65204;48.606;7.598;2023-11-22T01:03:12;11.49;72.43
76384;SHT30;65204;48.606;7.598;2023-11-22T01:03:43;11.44;72.88
76384;SHT30;65204;48.606;7.598;2023-11-22T01:04:13;11.46;72.83
76384;SHT30;65204;48.606;7.598;2023-11-22T01:04:45;11.27;72.40
76384;SHT30;65204;48.606;7.598;2023-11-22T01:05:15;11.23;72.62
76384;SHT30;65204;48.606;7.598;2023-11-22T01:05:47;11.22;72.94
76384;SHT30;65204;48.606;7.598;2023-11-22T01:06:18;11.09;72.75
76384;SHT30;65204;48.606;7.598;2023-11-22T01:06:48;10.99;73.20
76384;SHT30;65204;48.606;7.598;2023-11-22T01:07:19;10.98;73.33
76384;SHT30;65204;48.606;7.598;2023-11-22T01:07:49;10.85;73.30
76384;SHT30;65204;48.606;7.598;2023-11-22T01:08:19;10.86;73.69
76384;SHT30;65204;48.606;7.598;2023-11-22T01:08:49;10.69;73.44
76384;SHT30;65204;48.606;7.598;2023-11-22T01:09:20;10.71;74.01
76384;SHT30;65204;48.606;7.598;2023-11-22T01:09:51;10.82;73.89
76384;SHT30;65204;48.606;7.598;2023-11-22T01:10:23;10.79;73.88
76384;SHT30;65204;48.606;7.598;2023-11-22T01:10:53;10.80;74.23
76384;SHT30;65204;48.606;7.598;2023-11-22T01:11:24;10.69;73.89
76384;SHT30;65204;48.606;7.598;2023-11-22T01:11:54;10.72;74.59
76384;SHT30;65204;48.606;7.598;2023-11-22T01:12:24;10.80;74.22
76384;SHT30;65204;48.606;7.598;2023-11-22T01:12:55;10.82;74.07
76384;SHT30;65204;48.606;7.598;2023-11-22T01:13:25;10.88;74.09
76384;SHT30;65204;48.606;7.598;2023-11-22T01:13:55;10.88;74.12
76384;SHT30;65204;48.606;7.598;2023-11-22T01:14:27;10.89;74.20
76384;SHT30;65204;48.606;7.598;2023-11-22T01:14:57;10.83;74.11
76384;SHT30;65204;48.606;7.598;2023-11-22T01:15:28;10.80;74.20
76384;SHT30;65204;48.606;7.598;2023-11-22T01:15:58;10.69;74.11
76384;SHT30;65204;48.606;7.598;2023-11-22T01:16:29;10.66;74.36
76384;SHT30;65204;48.606;7.598;2023-11-22T01:16:59;10.69;74.07
76384;SHT30;65204;48.606;7.598;2023-11-22T01:17:29;10.71;74.24
76384;SHT30;65204;48.606;7.598;2023-11-22T01:18:01;10.73;74.21
76384;SHT30;65204;48.606;7.598;2023-11-22T01:18:31;10.78;74.21
76384;SHT30;65204;48.606;7.598;2023-11-22T01:19:01;10.78;74.11
76384;SHT30;65204;48.606;7.598;2023-11-22T01:19:32;10.79;74.25
76384;SHT30;65204;48.606;7.598;2023-11-22T01:20:02;10.69;74.06
76384;SHT30;65204;48.606;7.598;2023-11-22T01:20:33;10.71;74.00
76384;SHT30;65204;48.606;7.598;2023-11-22T01:21:04;10.75;73.95
76384;SHT30;65204;48.606;7.598;2023-11-22T01:21:34;10.80;73.76
76384;SHT30;65204;48.606;7.598;2023-11-22T01:22:04;10.82;73.66
76384;SHT30;65204;48.606;7.598;2023-11-22T01:22:35;10.79;73.25
76384;SHT30;65204;48.606;7.598;2023-11-22T01:23:05;10.85;73.42
76384;SHT30;65204;48.606;7.598;2023-11-22T01:23:35;10.85;73.61
76384;SHT30;65204;48.606;7.598;2023-11-22T01:24:06;10.88;73.59
76384;SHT30;65204;48.606;7.598;2023-11-22T01:24:37;10.86;73.20
76384;SHT30;65204;48.606;7.598;2023-11-22T01:25:07;10.85;73.41
76384;SHT30;65204;48.606;7.598;2023-11-22T01:25:38;10.85;73.52
76384;SHT30;65204;48.606;7.598;2023-11-22T01:26:08;10.82;73.25
76384;SHT30;65204;48.606;7.598;2023-11-22T01:26:39;10.80;73.53
76384;SHT30;65204;48.606;7.598;2023-11-22T01:27:10;10.85;73.30
76384;SHT30;65204;48.606;7.598;2023-11-22T01:27:40;10.86;73.72
76384;SHT30;65204;48.606;7.598;2023-11-22T01:28:11;10.89;73.94
76384;SHT30;65204;48.606;7.598;2023-11-22T01:28:41;10.89;73.73
76384;SHT30;65204;48.606;7.598;2023-11-22T01:29:14;10.89;73.42
76384;SHT30;65204;48.606;7.598;2023-11-22T01:29:44;10.93;73.17
76384;SHT30;65204;48.606;7.598;2023-11-22T01:30:15;10.91;73.33
76384;SHT30;65204;48.606;7.598;2023-11-22T01:30:46;10.92;73.60
76384;SHT30;65204;48.606;7.598;2023-11-22T01:31:17;10.92;73.75
76384;SHT30;65204;48.606;7.598;2023-11-22T01:31:50;10.92;73.67
76384;SHT30;65204;48.606;7.598;2023-11-22T01:32:21;10.92;73.89
76384;SHT30;65204;48.606;7.598;2023-11-22T01:32:51;10.92;73.69
76384;SHT30;65204;48.606;7.598;2023-11-22T01:33:22;10.78;73.67
76384;SHT30;65204;48.606;7.598;2023-11-22T01:33:53;10.71;73.80
76384;SHT30;65204;48.606;7.598;2023-11-22T01:34:23;10.72;74.27
76384;SHT30;65204;48.606;7.598;2023-11-22T01:34:54;10.73;74.26
76384;SHT30;65204;48.606;7.598;2023-11-22T01:35:29;10.72;74.33
76384;SHT30;65204;48.606;7.598;2023-11-22T01:35:59;10.72;74.30
76384;SHT30;65204;48.606;7.598;2023-11-22T01:36:30;10.69;74.41
76384;SHT30;65204;48.606;7.598;2023-11-22T01:37:00;10.68;74.69
76384;SHT30;65204;48.606;7.598;2023-11-22T01:37:31;10.68;74.54
76384;SHT30;65204;48.606;7.598;2023-11-22T01:38:02;10.62;74.85
76384;SHT30;65204;48.606;7.598;2023-11-22T01:38:34;10.69;74.92
76384;SHT30;65204;48.606;7.598;2023-11-22T01:39:04;10.69;74.91
76384;SHT30;65204;48.606;7.598;2023-11-22T01:39:35;10.71;75.24
76384;SHT30;65204;48.606;7.598;2023-11-22T01:40:05;10.73;75.20
76384;SHT30;65204;48.606;7.598;2023-11-22T01:40:45;10.69;74.68
76384;SHT30;65204;48.606;7.598;2023-11-22T01:41:16;10.71;74.89
76384;SHT30;65204;48.606;7.598;2023-11-22T01:41:46;10.69;74.87
76384;SHT30;65204;48.606;7.598;2023-11-22T01:42:20;10.65;75.10
76384;SHT30;65204;48.606;7.598;2023-11-22T01:42:50;10.66;75.13
76384;SHT30;65204;48.606;7.598;2023-11-22T01:43:20;10.66;75.07
76384;SHT30;65204;48.606;7.598;2023-11-22T01:43:54;10.62;74.49
76384;SHT30;65204;48.606;7.598;2023-11-22T01:44:24;10.52;74.86
76384;SHT30;65204;48.606;7.598;2023-11-22T01:44:54;10.55;75.43
76384;SHT30;65204;48.606;7.598;2023-11-22T01:45:25;10.52;75.32
76384;SHT30;65204;48.606;7.598;2023-11-22T01:45:56;10.54;75.32
76384;SHT30;65204;48.606;7.598;2023-11-22T01:46:27;10.52;75.38
76384;SHT30;65204;48.606;7.598;2023-11-22T01:46:58;10.42;75.70
76384;SHT30;65204;48.606;7.598;2023-11-22T01:47:28;10.44;76.28
76384;SHT30;65204;48.606;7.598;2023-11-22T01:48:00;10.40;76.81
76384;SHT30;65204;48.606;7.598;2023-11-22T01:48:31;10.34;77.88
76384;SHT30;65204;48.606;7.598;2023-11-22T01:49:02;10.17;77.86
76384;SHT30;65204;48.606;7.598;2023-11-22T01:49:32;10.15;78.49
76384;SHT30;65204;48.606;7.598;2023-11-22T01:50:05;10.11;78.71
76384;SHT30;65204;48.606;7.598;2023-11-22T01:50:40;10.08;78.54
76384;SHT30;65204;48.606;7.598;2023-11-22T01:51:10;9.91;78.59
76384;SHT30;65204;48.606;7.598;2023-11-22T01:51:41;9.89;79.04
76384;SHT30;65204;48.606;7.598;2023-11-22T01:52:12;9.90;79.13
76384;SHT30;65204;48.606;7.598;2023-11-22T01:52:43;9.91;78.86
76384;SHT30;65204;48.606;7.598;2023-11-22T01:53:15;9.86;78.14
76384;SHT30;65204;48.606;7.598;2023-11-22T01:53:50;9.89;78.40
76384;SHT30;65204;48.606;7.598;2023-11-22T01:54:24;9.89;78.52
76384;SHT30;65204;48.606;7.598;2023-11-22T01:54:55;9.77;77.85
76384;SHT30;65204;48.606;7.598;2023-11-22T01:55:25;9.73;77.42
76384;SHT30;65204;48.606;7.598;2023-11-22T01:55:56;9.74;77.20
76384;SHT30;65204;48.606;7.598;2023-11-22T01:56:28;9.66;77.31
76384;SHT30;65204;48.606;7.598;2023-11-22T01:56:59;9.63;76.86
76384;SHT30;65204;48.606;7.598;2023-11-22T01:57:34;9.57;76.66
76384;SHT30;65204;48.606;7.598;2023-11-22T01:58:06;9.52;76.83
76384;SHT30;65204;48.606;7.598;2023-11-22T01:58:36;9.56;77.02
76384;SHT30;65204;48.606;7.598;2023-11-22T01:59:07;9.54;76.76
76384;SHT30;65204;48.606;7.598;2023-11-22T01:59:37;9.43;76.47
76384;SHT30;65204;48.606;7.598;2023-11-22T02:00:09;9.39;76.46
76384;SHT30;65204;48.606;7.598;2023-11-22T02:00:51;9.43;76.67
76384;SHT30;65204;48.606;7.598;2023-11-22T02:01:22;9.43;76.60
76384;SHT30;65204;48.606;7.598;2023-11-22T02:01:53;9.32;76.43
76384;SHT30;65204;48.606;7.598;2023-11-22T02:02:25;9.21;76.70
76384;SHT30;65204;48.606;7.598;2023-11-22T02:02:55;9.25;77.01
76384;SHT30;65204;48.606;7.598;2023-11-22T02:03:26;9.21;77.06
76384;SHT30;65204;48.606;7.598;2023-11-22T02:03:57;9.28;77.45
76384;SHT30;65204;48.606;7.598;2023-11-22T02:04:27;9.25;77.10
76384;SHT30;65204;48.606;7.598;2023-11-22T02:04:58;9.07;76.60
76384;SHT30;65204;48.606;7.598;2023-11-22T02:05:28;9.08;76.77
76384;SHT30;65204;48.606;7.598;2023-11-22T02:05:58;9.18;77.07
76384;SHT30;65204;48.606;7.598;2023-11-22T02:06:30;9.10;77.04
76384;SHT30;65204;48.606;7.598;2023-11-22T02:07:02;9.00;76.63
76384;SHT30;65204;48.606;7.598;2023-11-22T02:07:32;8.89;76.68
76384;SHT30;65204;48.606;7.598;2023-11-22T02:08:03;8.85;76.62
76384;SHT30;65204;48.606;7.598;2023-11-22T02:08:33;8.89;77.12
76384;SHT30;65204;48.606;7.598;2023-11-22T02:09:03;8.92;77.36
76384;SHT30;65204;48.606;7.598;2023-11-22T02:09:34;8.84;77.35
76384;SHT30;65204;48.606;7.598;2023-11-22T02:10:06;8.85;76.87
76384;SHT30;65204;48.606;7.598;2023-11-22T02:10:38;8.88;76.95
76384;SHT30;65204;48.606;7.598;2023-11-22T02:11:08;8.93;76.71
76384;SHT30;65204;48.606;7.598;2023-11-22T02:11:39;8.88;76.48
76384;SHT30;65204;48.606;7.598;2023-11-22T02:12:10;8.91;76.46
76384;SHT30;65204;48.606;7.598;2023-11-22T02:12:40;8.77;76.17
76384;SHT30;65204;48.606;7.598;2023-11-22T02:13:11;8.78;76.46
76384;SHT30;65204;48.606;7.598;2023-11-22T02:13:41;8.75;76.71
76384;SHT30;65204;48.606;7.598;2023-11-22T02:14:11;8.75;76.93
76384;SHT30;65204;48.606;7.598;2023-11-22T02:14:42;8.70;76.86
76384;SHT30;65204;48.606;7.598;2023-11-22T02:15:12;8.63;76.94
76384;SHT30;65204;48.606;7.598;2023-11-22T02:15:43;8.65;76.88
76384;SHT30;65204;48.606;7.598;2023-11-22T02:16:13;8.65;77.08
76384;SHT30;65204;48.606;7.598;2023-11-22T02:16:44;8.71;76.96
76384;SHT30;65204;48.606;7.598;2023-11-22T02:17:15;8.72;77.44
76384;SHT30;65204;48.606;7.598;2023-11-22T02:17:47;8.70;77.09
76384;SHT30;65204;48.606;7.598;2023-11-22T02:18:17;8.65;76.91
76384;SHT30;65204;48.606;7.598;2023-11-22T02:18:47;8.68;76.86
76384;SHT30;65204;48.606;7.598;2023-11-22T02:19:18;8.65;77.25
76384;SHT30;65204;48.606;7.598;2023-11-22T02:19:49;8.63;76.95
76384;SHT30;65204;48.606;7.598;2023-11-22T02:20:19;8.68;77.20
76384;SHT30;65204;48.606;7.598;2023-11-22T02:20:49;8.67;77.10
76384;SHT30;65204;48.606;7.598;2023-11-22T02:21:21;8.75;77.07
76384;SHT30;65204;48.606;7.598;2023-11-22T02:21:51;8.71;77.03
76384;SHT30;65204;48.606;7.598;2023-11-22T02:22:22;8.68;76.86
76384;SHT30;65204;48.606;7.598;2023-11-22T02:22:53;8.67;77.14
76384;SHT30;65204;48.606;7.598;2023-11-22T02:23:24;8.67;76.70
76384;SHT30;65204;48.606;7.598;2023-11-22T02:23:54;8.63;76.70
76384;SHT30;65204;48.606;7.598;2023-11-22T02:24:25;8.64;77.11
76384;SHT30;65204;48.606;7.598;2023-11-22T02:24:56;8.57;76.77
76384;SHT30;65204;48.606;7.598;2023-11-22T02:25:27;8.60;76.84
76384;SHT30;65204;48.606;7.598;2023-11-22T02:25:57;8.61;77.11
76384;SHT30;65204;48.606;7.598;2023-11-22T02:26:28;8.67;77.13
76384;SHT30;65204;48.606;7.598;2023-11-22T02:27:00;8.68;77.05
76384;SHT30;65204;48.606;7.598;2023-11-22T02:27:30;8.72;77.31
76384;SHT30;65204;48.606;7.598;2023-11-22T02:28:01;8.70;77.11
76384;SHT30;65204;48.606;7.598;2023-11-22T02:28:32;8.77;77.38
76384;SHT30;65204;48.606;7.598;2023-11-22T02:29:03;8.70;77.32
76384;SHT30;65204;48.606;7.598;2023-11-22T02:29:36;8.70;77.31
76384;SHT30;65204;48.606;7.598;2023-11-22T02:30:07;8.68;77.19
76384;SHT30;65204;48.606;7.598;2023-11-22T02:30:38;8.74;77.56
76384;SHT30;65204;48.606;7.598;2023-11-22T02:31:08;8.72;76.79
76384;SHT30;65204;48.606;7.598;2023-11-22T02:31:42;8.70;76.87
76384;SHT30;65204;48.606;7.598;2023-11-22T02:32:13;8.71;77.19
76384;SHT30;65204;48.606;7.598;2023-11-22T02:32:44;8.78;77.15
76384;SHT30;65204;48.606;7.598;2023-11-22T02:33:14;8.84;77.12
76384;SHT30;65204;48.606;7.598;2023-11-22T02:33:44;8.87;77.02
76384;SHT30;65204;48.606;7.598;2023-11-22T02:34:15;8.89;76.88
76384;SHT30;65204;48.606;7.598;2023-11-22T02:34:45;8.95;77.02
76384;SHT30;65204;48.606;7.598;2023-11-22T02:35:16;9.01;77.02
76384;SHT30;65204;48.606;7.598;2023-11-22T02:35:48;9.02;76.33
76384;SHT30;65204;48.606;7.598;2023-11-22T02:36:18;9.04;75.74
76384;SHT30;65204;48.606;7.598;2023-11-22T02:36:48;9.08;76.33
76384;SHT30;65204;48.606;7.598;2023-11-22T02:37:19;9.12;76.53
76384;SHT30;65204;48.606;7.598;2023-11-22T02:37:49;9.12;76.57
76384;SHT30;65204;48.606;7.598;2023-11-22T02:38:20;9.14;76.08
76384;SHT30;65204;48.606;7.598;2023-11-22T02:38:50;9.11;75.51
76384;SHT30;65204;48.606;7.598;2023-11-22T02:39:25;9.14;75.43
76384;SHT30;65204;48.606;7.598;2023-11-22T02:40:04;9.12;75.65
76384;SHT30;65204;48.606;7.598;2023-11-22T02:40:35;9.16;75.86
76384;SHT30;65204;48.606;7.598;2023-11-22T02:41:05;9.22;76.19
76384;SHT30;65204;48.606;7.598;2023-11-22T02:41:36;9.18;75.78
76384;SHT30;65204;48.606;7.598;2023-11-22T02:42:06;9.22;75.83
76384;SHT30;65204;48.606;7.598;2023-11-22T02:42:36;9.19;75.48
76384;SHT30;65204;48.606;7.598;2023-11-22T02:43:07;9.19;75.03
76384;SHT30;65204;48.606;7.598;2023-11-22T02:43:39;9.04;74.80
76384;SHT30;65204;48.606;7.598;2023-11-22T02:44:11;9.04;75.28
76384;SHT30;65204;48.606;7.598;2023-11-22T02:44:45;9.11;75.69
76384;SHT30;65204;48.606;7.598;2023-11-22T02:45:17;8.97;74.54
76384;SHT30;65204;48.606;7.598;2023-11-22T02:45:53;8.80;74.45
76384;SHT30;65204;48.606;7.598;2023-11-22T02:46:23;8.84;74.99
76384;SHT30;65204;48.606;7.598;2023-11-22T02:46:53;8.70;74.55
76384;SHT30;65204;48.606;7.598;2023-11-22T02:47:24;8.60;74.79
76384;SHT30;65204;48.606;7.598;2023-11-22T02:47:55;8.47;75.09
76384;SHT30;65204;48.606;7.598;2023-11-22T02:48:25;8.40;75.65
76384;SHT30;65204;48.606;7.598;2023-11-22T02:48:55;8.43;75.98
76384;SHT30;65204;48.606;7.598;2023-11-22T02:49:26;8.23;75.78
76384;SHT30;65204;48.606;7.598;2023-11-22T02:49:56;8.13;76.23
76384;SHT30;65204;48.606;7.598;2023-11-22T02:50:27;8.12;76.59
76384;SHT30;65204;48.606;7.598;2023-11-22T02:50:57;8.12;76.84
76384;SHT30;65204;48.606;7.598;2023-11-22T02:51:28;8.13;76.69
76384;SHT30;65204;48.606;7.598;2023-11-22T02:51:58;8.19;76.90
76384;SHT30;65204;48.606;7.598;2023-11-22T02:52:28;8.19;76.78
76384;SHT30;65204;48.606;7.598;2023-11-22T02:52:58;8.20;76.84
76384;SHT30;65204;48.606;7.598;2023-11-22T02:53:29;8.23;76.95
76384;SHT30;65204;48.606;7.598;2023-11-22T02:54:00;8.20;76.83
76384;SHT30;65204;48.606;7.598;2023-11-22T02:54:30;8.16;76.65
76384;SHT30;65204;48.606;7.598;2023-11-22T02:55:00;8.07;76.40
76384;SHT30;65204;48.606;7.598;2023-11-22T02:55:31;8.12;76.89
76384;SHT30;65204;48.606;7.598;2023-11-22T02:56:01;8.06;77.00
76384;SHT30;65204;48.606;7.598;2023-11-22T02:56:31;7.90;76.07
76384;SHT30;65204;48.606;7.598;2023-11-22T02:57:02;7.97;76.47
76384;SHT30;65204;48.606;7.598;2023-11-22T02:57:32;8.07;76.72
76384;SHT30;65204;48.606;7.598;2023-11-22T02:58:03;8.06;76.47
76384;SHT30;65204;48.606;7.598;2023-11-22T02:58:33;7.97;75.65
76384;SHT30;65204;48.606;7.598;2023-11-22T02:59:03;8.10;76.05
76384;SHT30;65204;48.606;7.598;2023-11-22T02:59:34;8.03;75.51
76384;SHT30;65204;48.606;7.598;2023-11-22T03:00:04;7.97;75.52
76384;SHT30;65204;48.606;7.598;2023-11-22T03:00:35;8.07;75.93
76384;SHT30;65204;48.606;7.598;2023-11-22T03:01:05;8.13;75.87
76384;SHT30;65204;48.606;7.598;2023-11-22T03:01:37;8.06;75.34
76384;SHT30;65204;48.606;7.598;2023-11-22T03:02:07;7.93;74.63
76384;SHT30;65204;48.606;7.598;2023-11-22T03:02:38;7.93;75.19
76384;SHT30;65204;48.606;7.598;2023-11-22T03:03:11;7.86;75.48
76384;SHT30;65204;48.606;7.598;2023-11-22T03:03:42;7.96;76.09
76384;SHT30;65204;48.606;7.598;2023-11-22T03:04:15;8.02;75.80
76384;SHT30;65204;48.606;7.598;2023-11-22T03:04:45;7.95;75.46
76384;SHT30;65204;48.606;7.598;2023-11-22T03:05:16;8.06;75.88
76384;SHT30;65204;48.606;7.598;2023-11-22T03:05:46;8.10;75.83
76384;SHT30;65204;48.606;7.598;2023-11-22T03:06:17;8.07;74.99
76384;SHT30;65204;48.606;7.598;2023-11-22T03:06:47;8.06;75.01
76384;SHT30;65204;48.606;7.598;2023-11-22T03:07:18;8.12;75.00
76384;SHT30;65204;48.606;7.598;2023-11-22T03:07:50;8.16;74.87
76384;SHT30;65204;48.606;7.598;2023-11-22T03:08:21;8.25;74.95
76384;SHT30;65204;48.606;7.598;2023-11-22T03:08:52;8.30;74.96
76384;SHT30;65204;48.606;7.598;2023-11-22T03:09:22;8.36;75.04
76384;SHT30;65204;48.606;7.598;2023-11-22T03:09:53;8.36;74.51
76384;SHT30;65204;48.606;7.598;2023-11-22T03:10:24;8.27;74.08
76384;SHT30;65204;48.606;7.598;2023-11-22T03:10:54;8.25;73.93
76384;SHT30;65204;48.606;7.598;2023-11-22T03:11:25;8.27;73.98
76384;SHT30;65204;48.606;7.598;2023-11-22T03:11:55;8.26;74.35
76384;SHT30;65204;48.606;7.598;2023-11-22T03:12:26;8.13;74.39
76384;SHT30;65204;48.606;7.598;2023-11-22T03:12:56;7.86;74.17
76384;SHT30;65204;48.606;7.598;2023-11-22T03:13:26;7.81;75.02
76384;SHT30;65204;48.606;7.598;2023-11-22T03:13:57;7.72;75.09
76384;SHT30;65204;48.606;7.598;2023-11-22T03:14:27;7.54;75.38
76384;SHT30;65204;48.606;7.598;2023-11-22T03:14:58;7.58;75.80
76384;SHT30;65204;48.606;7.598;2023-11-22T03:15:31;7.62;76.01
76384;SHT30;65204;48.606;7.598;2023-11-22T03:16:02;7.56;75.68
76384;SHT30;65204;48.606;7.598;2023-11-22T03:16:33;7.58;75.98